TNCAMKJS

Guest
Details From TNCA - Reina Beatrix Intl
To MKJS - Montego Bay Sangster Intl
Flight Number -
Tags Generated
Created
Modified
Stats Distance 582 nm / 1,077 km
Max Altitude 0 ft / 0 m
Waypoints 4
Social Downloads 1
Likes 0
Share VATSIM

Download

Looking for another format? Having issues loading an existing format? Contact us
Advertisement - Login to hide

Notes

Generated

Route

TNCA AMBIN MBJ MKJS

ID Type Via Altitude Latitude Longitude Leg Dist Tot Dist Heading (true) Name
O TNCA APT - 0 ft / 0 m 12.50439˚ -70.02747˚ - 0 nm - -
AMBIN FIX - 0 ft / 0 m 15.68333˚ -74.00000˚ 299 nm 299 nm 310° / 309° -
MBJ VOR - 0 ft / 0 m 18.50036˚ -77.92392˚ 281 nm 581 nm 307° / 306° MONTEGO BAY VOR-DME
O MKJS APT - 0 ft / 0 m 18.49873˚ -77.92482˚ 0 nm 581 nm 208° / 208° -

Altitude Profile

Advertisement - Login to hide

Weather


0- 5 10 15 20 25 30 35+ Temperature / ° C

Clouds and Precipitation
Forecast for 2017-12-18 18:00 UTC. Updated 2 hours ago

Ground ~20,000 ft ~40,000 ft Winds

TNCA

Details ICAO TNCA (AUA)
Name REINA BEATRIX INTL
Region Caribbean Netherlands, Aruba, Curaçao, Sint Maarten
Timezone America/Aruba (UTC-4.0)
Stats Elevation 60 ft / 18 m (AMSL)
Location 12.501389° -70.015220°
Runways 1
Magnetic Variation 10.771° W

METAR

TNCA 181400Z 09016KT 060V120 9999 SCT021 29/24 Q1014 A2997 NOSIG

Decode

TAF

TAF TNCA 180400Z 1806/1906 08013KT 9999 SCT018 TEMPO 1814/1818 BKN014

Decode

Departure Runways

ID Width Length Bearing (true) Bearing (mag) Surface Threshold Offset Overrun Length
11 148 ft / 45 m 8,998 ft / 2,743 m 104.08° 114.85° Asphalt 0 ft / 0 m 184 ft / 56 m
29 148 ft / 45 m 8,998 ft / 2,743 m 284.09° 294.86° Asphalt 0 ft / 0 m 184 ft / 56 m

MKJS

Details ICAO MKJS (MBJ)
Name Sangster Intl
Region Jamaica
Timezone America/Jamaica (UTC-5.0)
Stats Elevation 6 ft / 2 m (AMSL)
Location 18.503549° -77.913698°
Runways 1
Magnetic Variation 6.957° W

METAR

MKJS 181500Z 09024KT 9999 SCT022 29/22 Q1017

Decode

TAF

TAF MKJS 181115Z 1812/1912 09020KT 9999 SCT022 BECMG 1900/1902 13008KT

Decode

Destination Runways

ID Width Length Bearing (true) Bearing (mag) Surface Threshold Offset Overrun Length
07 161 ft / 49 m 8,495 ft / 2,589 m 65.37° 72.33° Asphalt 220 ft / 67 m 312 ft / 95 m
25 161 ft / 49 m 8,495 ft / 2,589 m 245.37° 252.33° Asphalt 577 ft / 176 m 200 ft / 61 m

Approach Navaids

Runway Type Ident Frequency Range Bearing (true) Bearing (mag) Slope Elevation
07 Localiser ISIA 109.50 MHz 18 nm / 33 km 65.41° 72.36° - 4 ft / 1 m (AMSL)
07 Glidescope ISIA 109.50 MHz 10 nm / 19 km 65.37° 72.33° 3.00° 4 ft / 1 m (AMSL)

Popular Alternatives